createdAt,value
2018-11-21T00:01:22.062Z,32.60
2018-11-21T00:03:50.158Z,29.27
2018-11-21T00:06:18.244Z,31.97
2018-11-21T00:08:47.292Z,34.00
2018-11-21T00:11:15.383Z,28.07
2018-11-21T00:13:43.531Z,27.48
2018-11-21T00:16:11.615Z,32.63
2018-11-21T00:18:39.794Z,27.32
2018-11-21T00:21:07.942Z,32.70
2018-11-21T00:23:36.035Z,31.12
2018-11-21T00:26:04.479Z,26.55
2018-11-21T00:28:32.646Z,25.68
2018-11-21T00:31:00.768Z,28.92
2018-11-21T00:33:28.863Z,28.43
2018-11-21T00:35:57.055Z,26.48
2018-11-21T00:38:25.187Z,25.27
2018-11-21T00:40:53.296Z,25.77
2018-11-21T00:43:21.369Z,27.27
2018-11-21T00:45:49.471Z,22.10
2018-11-21T00:48:17.663Z,23.98
2018-11-21T00:50:45.744Z,21.50
2018-11-21T00:53:13.851Z,25.75
2018-11-21T00:55:41.942Z,24.12
2018-11-21T00:58:10.072Z,22.42
2018-11-21T01:00:38.172Z,21.62
2018-11-21T01:03:06.261Z,23.02
2018-11-21T01:05:34.335Z,28.52
2018-11-21T01:08:02.450Z,21.70
2018-11-21T01:10:30.536Z,22.48
2018-11-21T01:12:58.612Z,25.60
2018-11-21T01:15:26.709Z,19.82
2018-11-21T01:17:54.850Z,20.92
2018-11-21T01:20:22.981Z,20.85
2018-11-21T01:22:51.155Z,21.68
2018-11-21T01:25:19.285Z,21.37
2018-11-21T01:27:47.479Z,24.10
2018-11-21T01:30:15.588Z,18.55
2018-11-21T01:32:43.666Z,19.50
2018-11-21T01:35:11.748Z,22.65
2018-11-21T01:37:39.855Z,24.05
2018-11-21T01:40:08.691Z,22.15
2018-11-21T01:42:36.791Z,21.42
2018-11-21T01:45:05.033Z,19.57
2018-11-21T01:47:33.150Z,19.25
2018-11-21T01:50:01.226Z,19.85
2018-11-21T01:52:29.332Z,21.42
2018-11-21T01:54:57.423Z,20.17
2018-11-21T01:57:25.528Z,19.60
2018-11-21T01:59:53.652Z,19.17
2018-11-21T02:02:21.758Z,21.25
2018-11-21T02:04:49.855Z,16.70
2018-11-21T02:07:17.950Z,19.50
2018-11-21T02:09:46.092Z,18.48
2018-11-21T02:12:14.174Z,16.48
2018-11-21T02:14:42.281Z,18.52
2018-11-21T02:17:10.503Z,23.40
2018-11-21T02:19:38.704Z,19.20
2018-11-21T02:22:06.789Z,16.95
2018-11-21T02:24:35.028Z,17.92
2018-11-21T02:27:03.213Z,22.70
2018-11-21T02:29:31.460Z,20.05
2018-11-21T02:31:59.570Z,20.75
2018-11-21T02:34:27.669Z,20.12
2018-11-21T02:36:55.841Z,21.67
2018-11-21T02:39:24.023Z,19.67
2018-11-21T02:41:52.131Z,21.17
2018-11-21T02:44:20.213Z,16.77
2018-11-21T02:46:48.338Z,18.07
2018-11-21T02:49:16.499Z,16.30
2018-11-21T02:51:44.583Z,20.00
2018-11-21T02:54:12.704Z,17.43
2018-11-21T02:57:22.445Z,18.83
2018-11-21T03:00:00.508Z,18.92
2018-11-21T03:02:28.635Z,16.23
2018-11-21T03:04:56.730Z,19.20
2018-11-21T03:07:24.821Z,20.92
2018-11-21T03:09:53.023Z,18.32
2018-11-21T03:12:21.109Z,22.47
2018-11-21T03:14:49.200Z,17.97
2018-11-21T03:17:17.283Z,17.03
2018-11-21T03:19:45.414Z,18.50
2018-11-21T03:22:13.575Z,19.80
2018-11-21T03:24:41.675Z,19.27
2018-11-21T03:27:09.782Z,17.10
2018-11-21T03:29:38.951Z,18.12
2018-11-21T03:32:07.054Z,16.82
2018-11-21T03:34:35.138Z,18.90
2018-11-21T03:37:03.284Z,19.00
2018-11-21T03:39:31.388Z,17.52
2018-11-21T03:41:59.583Z,19.42
2018-11-21T03:44:27.651Z,19.98
2018-11-21T03:46:55.750Z,18.82
2018-11-21T03:49:23.903Z,18.37
2018-11-21T03:51:52.010Z,19.20
2018-11-21T03:56:48.171Z,20.45
2018-11-21T03:59:18.268Z,18.75
2018-11-21T04:01:47.676Z,20.60
2018-11-21T04:04:15.791Z,16.77
2018-11-21T04:06:43.904Z,20.90
2018-11-21T04:09:12.796Z,18.37
2018-11-21T04:11:40.872Z,19.95
2018-11-21T04:14:08.988Z,22.15
2018-11-21T04:16:37.070Z,17.62
2018-11-21T04:19:05.198Z,21.82
2018-11-21T04:21:33.298Z,17.07
2018-11-21T04:24:01.414Z,18.35
2018-11-21T04:26:29.492Z,21.40
2018-11-21T04:28:57.701Z,21.68
2018-11-21T04:31:25.817Z,20.88
2018-11-21T04:33:53.984Z,17.75
2018-11-21T04:36:22.090Z,22.32
2018-11-21T04:38:50.258Z,18.30
2018-11-21T04:41:18.385Z,26.60
2018-11-21T04:43:46.512Z,22.22
2018-11-21T04:46:14.758Z,22.40
2018-11-21T04:48:42.955Z,21.75
2018-11-21T04:51:11.083Z,20.45
2018-11-21T04:53:39.192Z,21.90
2018-11-21T04:56:07.283Z,20.15
2018-11-21T04:58:35.492Z,15.72
2018-11-21T05:01:03.998Z,21.30
2018-11-21T05:03:32.111Z,20.60
2018-11-21T05:06:00.190Z,18.95
2018-11-21T05:08:28.360Z,18.48
2018-11-21T05:10:56.488Z,21.20
2018-11-21T05:13:24.573Z,18.85
2018-11-21T05:15:52.692Z,21.68
2018-11-21T05:18:20.872Z,17.50
2018-11-21T05:20:48.968Z,17.82
2018-11-21T05:23:17.075Z,17.52
2018-11-21T05:25:45.193Z,19.55
2018-11-21T05:28:13.323Z,18.57
2018-11-21T05:30:41.414Z,21.07
2018-11-21T05:33:09.528Z,18.25
2018-11-21T05:35:37.623Z,18.85
2018-11-21T05:38:05.846Z,18.32
2018-11-21T05:40:33.930Z,19.48
2018-11-21T05:43:02.036Z,22.50
2018-11-21T05:45:30.111Z,18.27
2018-11-21T05:47:58.239Z,21.00
2018-11-21T05:50:26.318Z,18.92
2018-11-21T05:52:54.416Z,20.00
2018-11-21T05:55:22.509Z,19.90
2018-11-21T05:57:50.614Z,20.93
2018-11-21T06:00:19.698Z,22.13
2018-11-21T06:02:47.773Z,17.93
2018-11-21T06:05:15.878Z,18.37
2018-11-21T06:07:43.967Z,21.60
2018-11-21T06:10:13.627Z,20.30
2018-11-21T06:12:42.298Z,22.35
2018-11-21T06:15:10.985Z,19.67
2018-11-21T06:17:39.079Z,18.57
2018-11-21T06:20:12.142Z,20.12
2018-11-21T06:22:40.307Z,18.00
2018-11-21T06:25:09.205Z,19.35
2018-11-21T06:27:37.321Z,18.95
2018-11-21T06:30:08.830Z,20.15
2018-11-21T06:32:36.930Z,20.52
2018-11-21T06:35:06.404Z,17.80
2018-11-21T06:37:34.499Z,21.20
2018-11-21T06:40:02.785Z,22.87
2018-11-21T06:42:30.883Z,20.55
2018-11-21T06:44:58.983Z,19.70
2018-11-21T06:47:27.047Z,21.73
2018-11-21T06:49:55.164Z,19.77
2018-11-21T06:52:23.268Z,22.75
2018-11-21T06:54:51.347Z,15.25
2018-11-21T06:57:19.442Z,20.12
2018-11-21T06:59:47.537Z,17.48
2018-11-21T07:02:15.796Z,20.08
2018-11-21T07:04:43.890Z,18.50
2018-11-21T07:07:12.133Z,18.30
2018-11-21T07:09:40.312Z,21.40
2018-11-21T07:12:08.528Z,20.72
2018-11-21T07:14:36.790Z,20.25
2018-11-21T07:17:05.274Z,17.20
2018-11-21T07:19:33.577Z,19.35
2018-11-21T07:22:01.920Z,16.82
2018-11-21T07:24:30.157Z,17.50
2018-11-21T07:26:58.282Z,18.17
2018-11-21T07:29:26.613Z,16.95
2018-11-21T07:31:54.710Z,19.48
2018-11-21T07:34:23.226Z,18.70
2018-11-21T07:36:51.710Z,18.20
2018-11-21T07:39:21.025Z,21.30
2018-11-21T07:41:49.280Z,24.85
2018-11-21T07:44:17.387Z,23.00
2018-11-21T07:46:45.624Z,21.65
2018-11-21T07:49:13.762Z,25.15
2018-11-21T07:51:41.999Z,21.97
2018-11-21T07:54:10.129Z,25.50
2018-11-21T07:57:44.407Z,22.70
2018-11-21T08:01:02.736Z,21.82
2018-11-21T08:03:50.840Z,23.90
2018-11-21T08:06:31.853Z,25.35
2018-11-21T08:09:18.667Z,22.45
2018-11-21T08:12:15.396Z,22.20
2018-11-21T08:15:09.205Z,23.27
2018-11-21T08:17:59.864Z,23.52
2018-11-21T08:20:46.159Z,20.73
2018-11-21T08:23:55.402Z,22.37
2018-11-21T08:26:45.480Z,23.70
2018-11-21T08:29:13.754Z,23.73
2018-11-21T08:31:42.055Z,23.75
2018-11-21T08:34:10.279Z,24.00
2018-11-21T08:36:38.535Z,30.47
2018-11-21T08:39:08.457Z,23.97
2018-11-21T08:41:36.711Z,25.60
2018-11-21T08:44:05.660Z,28.92
2018-11-21T08:46:34.186Z,27.37
2018-11-21T08:49:02.406Z,29.40
2018-11-21T08:51:30.631Z,27.62
2018-11-21T08:53:58.870Z,26.95
2018-11-21T08:56:27.092Z,29.00
2018-11-21T08:58:55.462Z,25.40
2018-11-21T09:01:23.571Z,32.60
2018-11-21T09:03:51.671Z,26.70
2018-11-21T09:06:19.896Z,29.52
2018-11-21T09:08:48.020Z,29.20
2018-11-21T09:11:16.252Z,27.50
2018-11-21T09:13:44.452Z,23.62
2018-11-21T09:16:12.674Z,26.47
2018-11-21T09:18:40.828Z,26.07
2018-11-21T09:21:09.048Z,32.33
2018-11-21T09:23:37.163Z,29.27
2018-11-21T09:26:05.384Z,29.00
2018-11-21T09:28:33.527Z,33.05
2018-11-21T09:31:01.714Z,28.70
2018-11-21T09:33:29.984Z,34.50
2018-11-21T09:35:58.174Z,28.03
2018-11-21T09:38:26.446Z,27.40
2018-11-21T09:40:54.576Z,32.20
2018-11-21T09:43:22.796Z,25.63
2018-11-21T09:45:50.926Z,28.43
2018-11-21T09:48:19.180Z,32.83
2018-11-21T09:50:47.414Z,26.33
2018-11-21T09:53:15.660Z,30.30
2018-11-21T09:55:43.906Z,35.10
2018-11-21T09:58:12.083Z,35.63
2018-11-21T10:01:35.965Z,29.93
2018-11-21T10:04:04.211Z,28.00
2018-11-21T10:06:36.372Z,26.03
2018-11-21T10:09:10.515Z,28.32
2018-11-21T10:11:38.749Z,27.57
2018-11-21T10:14:06.862Z,24.13
2018-11-21T10:16:35.099Z,26.90
2018-11-21T10:19:03.526Z,25.33
2018-11-21T10:21:33.084Z,27.73
2018-11-21T10:24:01.256Z,28.27
2018-11-21T10:26:29.447Z,27.73
2018-11-21T10:28:57.590Z,31.70
2018-11-21T10:31:25.794Z,24.50
2018-11-21T10:33:53.914Z,25.60
2018-11-21T10:36:22.113Z,25.27
2018-11-21T10:38:50.313Z,27.00
2018-11-21T10:41:18.513Z,28.63
2018-11-21T10:43:46.739Z,23.40
2018-11-21T10:46:14.854Z,26.67
2018-11-21T10:48:43.103Z,23.23
2018-11-21T10:51:11.232Z,22.73
2018-11-21T10:53:39.420Z,21.77
2018-11-21T10:56:07.537Z,23.53
2018-11-21T10:58:35.737Z,23.63
2018-11-21T11:01:13.311Z,23.50
2018-11-21T11:03:48.146Z,27.63
2018-11-21T11:06:47.210Z,22.67
2018-11-21T11:09:33.684Z,20.10
2018-11-21T11:12:20.203Z,19.27
2018-11-21T11:15:10.608Z,21.63
2018-11-21T11:17:59.455Z,20.40
2018-11-21T11:20:56.668Z,21.60
2018-11-21T11:23:56.733Z,24.77
2018-11-21T11:26:42.504Z,22.40
2018-11-21T11:29:28.848Z,20.30
2018-11-21T11:32:22.184Z,22.10
2018-11-21T11:35:08.782Z,21.80
2018-11-21T11:37:59.173Z,21.30
2018-11-21T11:41:05.032Z,28.30
2018-11-21T11:44:05.075Z,27.73
2018-11-21T11:47:04.971Z,26.50
2018-11-21T11:50:01.812Z,22.20
2018-11-21T11:52:48.168Z,21.37
2018-11-21T11:55:40.035Z,22.43
2018-11-21T11:58:27.270Z,20.97
2018-11-21T12:01:13.655Z,23.70
2018-11-21T12:03:57.802Z,20.30
2018-11-21T12:06:28.540Z,22.80
2018-11-21T12:09:28.316Z,24.10
2018-11-21T12:12:14.773Z,23.20
2018-11-21T12:15:18.854Z,20.03
2018-11-21T12:18:24.720Z,26.47
2018-11-21T12:21:11.086Z,22.33
2018-11-21T12:23:57.831Z,23.20
2018-11-21T12:26:54.725Z,26.40
2018-11-21T12:29:45.774Z,20.33
2018-11-21T12:32:27.080Z,20.90
2018-11-21T12:35:21.682Z,23.70
2018-11-21T12:37:58.239Z,22.03
2018-11-21T12:40:58.287Z,21.23
2018-11-21T12:43:55.218Z,22.97
2018-11-21T12:46:54.799Z,22.03
2018-11-21T12:50:00.499Z,20.60
2018-11-21T12:52:46.787Z,21.43
2018-11-21T12:55:25.898Z,21.03
2018-11-21T12:58:12.570Z,19.67
2018-11-21T13:01:18.336Z,25.03
2018-11-21T13:04:06.199Z,23.10
2018-11-21T13:06:53.433Z,20.53
2018-11-21T13:09:33.782Z,19.03
2018-11-21T13:12:19.906Z,18.53
2018-11-21T13:15:07.544Z,17.67
2018-11-21T13:17:58.207Z,18.77
2018-11-21T13:20:44.517Z,14.73
2018-11-21T13:23:30.750Z,13.90
2018-11-21T13:26:16.976Z,12.57
2018-11-21T13:29:04.658Z,13.50
2018-11-21T13:31:51.007Z,16.20
2018-11-21T13:34:53.732Z,14.90
2018-11-21T13:37:40.342Z,18.43
2018-11-21T13:40:32.187Z,15.13
2018-11-21T13:43:13.839Z,14.23
2018-11-21T13:46:00.259Z,14.00
2018-11-21T13:48:55.805Z,14.37
2018-11-21T13:51:40.330Z,14.27
2018-11-21T13:54:30.959Z,12.27
2018-11-21T13:56:59.050Z,14.13
2018-11-21T13:59:28.604Z,14.53
2018-11-21T14:01:56.712Z,12.67
2018-11-21T14:04:24.810Z,13.07
2018-11-21T14:06:52.871Z,12.23
2018-11-21T14:09:22.128Z,11.67
2018-11-21T14:11:50.489Z,11.30
2018-11-21T14:14:18.878Z,11.37
2018-11-21T14:16:46.940Z,11.10
2018-11-21T14:19:15.127Z,16.10
2018-11-21T14:21:43.224Z,15.43
2018-11-21T14:24:11.307Z,10.90
2018-11-21T14:26:39.415Z,16.30
2018-11-21T14:29:07.526Z,11.47
2018-11-21T14:31:35.664Z,15.00
2018-11-21T14:34:04.012Z,14.27
2018-11-21T14:36:32.126Z,12.27
2018-11-21T14:39:00.267Z,13.43
2018-11-21T14:41:28.346Z,14.37
2018-11-21T14:43:56.455Z,17.30
2018-11-21T14:46:24.545Z,15.70
2018-11-21T14:48:52.655Z,13.77
2018-11-21T14:51:20.743Z,16.30
2018-11-21T14:53:48.831Z,21.23
2018-11-21T14:56:16.892Z,18.03
2018-11-21T14:58:45.052Z,15.63
2018-11-21T15:01:13.125Z,17.97
2018-11-21T15:03:41.350Z,15.40
2018-11-21T15:06:09.424Z,15.40
2018-11-21T15:08:37.597Z,14.27
2018-11-21T15:11:05.662Z,17.97
2018-11-21T15:13:33.763Z,14.80
2018-11-21T15:16:01.863Z,14.57
2018-11-21T15:18:29.964Z,20.40
2018-11-21T15:20:58.057Z,20.80
2018-11-21T15:23:26.119Z,17.63
2018-11-21T15:25:54.206Z,14.50
2018-11-21T15:28:22.319Z,18.20
2018-11-21T15:30:50.424Z,14.23
2018-11-21T15:33:19.108Z,17.13
2018-11-21T15:35:47.204Z,18.93
2018-11-21T15:38:15.668Z,19.40
2018-11-21T15:40:47.067Z,20.13
2018-11-21T15:43:11.892Z,22.90
2018-11-21T15:45:39.962Z,19.33
2018-11-21T15:48:08.174Z,25.53
2018-11-21T15:50:36.317Z,19.00
2018-11-21T15:53:04.430Z,22.43
2018-11-21T15:55:32.504Z,18.73
2018-11-21T15:58:00.650Z,20.43
2018-11-21T16:00:33.783Z,19.87
2018-11-21T16:03:03.971Z,21.83
2018-11-21T16:05:32.284Z,21.37
2018-11-21T16:08:03.479Z,22.17
2018-11-21T16:10:36.120Z,24.07
2018-11-21T16:13:04.726Z,17.63
2018-11-21T16:15:41.866Z,18.90
2018-11-21T16:18:09.964Z,18.90
2018-11-21T16:20:38.075Z,18.70
2018-11-21T16:23:06.222Z,18.97
2018-11-21T16:25:34.317Z,18.93
2018-11-21T16:28:02.499Z,21.37
2018-11-21T16:30:30.591Z,23.97
2018-11-21T16:32:58.702Z,19.80
2018-11-21T16:35:26.813Z,21.27
2018-11-21T16:37:54.941Z,21.67
2018-11-21T16:40:24.675Z,20.43
2018-11-21T16:42:53.795Z,22.30
2018-11-21T16:45:26.555Z,22.37
2018-11-21T16:47:54.641Z,23.60
2018-11-21T16:50:22.745Z,21.75
2018-11-21T16:52:50.847Z,21.10
2018-11-21T16:55:20.479Z,24.40
2018-11-21T16:57:49.175Z,19.73
2018-11-21T17:00:21.473Z,24.10
2018-11-21T17:02:50.858Z,20.47
2018-11-21T17:05:20.134Z,21.52
2018-11-21T17:07:48.431Z,22.80
2018-11-21T17:10:18.061Z,24.47
2018-11-21T17:12:46.664Z,24.10
2018-11-21T17:15:16.332Z,22.40
2018-11-21T17:17:44.425Z,24.10
2018-11-21T17:20:18.142Z,24.97
2018-11-21T17:22:47.594Z,20.02
2018-11-21T17:25:17.211Z,25.70
2018-11-21T17:27:45.682Z,23.13
2018-11-21T17:30:14.902Z,24.10
2018-11-21T17:32:43.013Z,26.30
2018-11-21T17:35:12.476Z,25.90
2018-11-21T17:37:40.611Z,31.77
2018-11-21T17:40:21.827Z,24.57
2018-11-21T17:42:49.998Z,25.27
2018-11-21T17:45:18.570Z,21.17
2018-11-21T17:47:46.670Z,20.90
2018-11-21T17:50:16.053Z,26.27
2018-11-21T17:52:44.875Z,28.30
2018-11-21T17:55:14.655Z,28.00
2018-11-21T17:57:42.751Z,24.10
2018-11-21T18:00:14.890Z,27.60
2018-11-21T18:02:43.011Z,27.80
2018-11-21T18:05:12.460Z,30.00
2018-11-21T18:07:40.566Z,27.50
2018-11-21T18:10:17.711Z,28.13
2018-11-21T18:12:46.420Z,27.17
2018-11-21T18:15:15.090Z,23.97
2018-11-21T18:17:44.414Z,26.20
2018-11-21T18:20:13.288Z,27.13
2018-11-21T18:22:42.174Z,23.57
2018-11-21T18:27:43.197Z,27.40
2018-11-21T18:30:14.199Z,31.63
2018-11-21T18:32:43.548Z,27.93
2018-11-21T18:35:13.305Z,28.27
2018-11-21T18:37:42.560Z,31.73
2018-11-21T18:40:16.311Z,36.97
2018-11-21T18:42:47.298Z,29.73
2018-11-21T18:45:22.192Z,32.67
2018-11-21T18:47:50.964Z,25.90
2018-11-21T18:50:19.756Z,26.10
2018-11-21T18:52:49.442Z,23.20
2018-11-21T18:55:20.940Z,24.97
2018-11-21T18:58:42.921Z,23.37
2018-11-21T19:01:11.589Z,26.83
2018-11-21T19:03:40.094Z,31.00
2018-11-21T19:06:08.515Z,25.37
2018-11-21T19:08:37.891Z,26.17
2018-11-21T19:11:06.019Z,25.60
2018-11-21T19:13:34.653Z,29.30
2018-11-21T19:16:03.855Z,29.83
2018-11-21T19:18:33.395Z,26.70
2018-11-21T19:21:01.531Z,34.97
2018-11-21T19:23:29.957Z,27.10
2018-11-21T19:25:58.460Z,26.93
2018-11-21T19:28:26.687Z,30.20
2018-11-21T19:30:54.919Z,25.40
2018-11-21T19:33:26.125Z,24.80
2018-11-21T19:35:54.426Z,34.78
2018-11-21T19:38:23.697Z,33.03
2018-11-21T19:40:53.147Z,28.20
2018-11-21T19:43:22.028Z,31.67
2018-11-21T19:45:51.107Z,30.93
2018-11-21T19:48:19.632Z,29.33
2018-11-21T19:50:47.998Z,32.03
2018-11-21T19:53:16.613Z,30.03
2018-11-21T19:55:46.404Z,30.60
2018-11-21T19:58:14.945Z,26.07
2018-11-21T20:00:43.171Z,27.83
2018-11-21T20:03:11.369Z,34.10
2018-11-21T20:05:39.545Z,25.53
2018-11-21T20:08:07.871Z,28.97
2018-11-21T20:10:36.583Z,23.00
2018-11-21T20:13:05.004Z,26.80
2018-11-21T20:15:33.252Z,28.80
2018-11-21T20:18:02.676Z,23.53
2018-11-21T20:20:30.958Z,26.10
2018-11-21T20:22:59.260Z,26.73
2018-11-21T20:25:27.642Z,28.40
2018-11-21T20:27:56.095Z,29.37
2018-11-21T20:30:29.261Z,27.93
2018-11-21T20:32:57.482Z,24.47
2018-11-21T20:35:26.004Z,28.30
2018-11-21T20:37:54.274Z,25.30
2018-11-21T20:40:27.064Z,28.47
2018-11-21T20:42:55.354Z,24.10
2018-11-21T20:45:25.333Z,25.10
2018-11-21T20:47:55.321Z,27.43
2018-11-21T20:50:24.182Z,27.87
2018-11-21T20:52:52.570Z,30.27
2018-11-21T20:55:22.655Z,23.73
2018-11-21T20:57:50.855Z,27.37
2018-11-21T21:00:26.435Z,28.10
2018-11-21T21:02:55.029Z,26.85
2018-11-21T21:05:24.504Z,28.57
2018-11-21T21:07:52.934Z,25.30
2018-11-21T21:10:25.633Z,25.83
2018-11-21T21:12:53.730Z,25.77
2018-11-21T21:15:22.227Z,25.37
2018-11-21T21:17:50.866Z,22.90
2018-11-21T21:20:20.761Z,22.57
2018-11-21T21:22:50.376Z,24.40
2018-11-21T21:25:19.944Z,25.50
2018-11-21T21:27:48.110Z,24.10
2018-11-21T21:30:20.623Z,27.17
2018-11-21T21:32:48.730Z,25.20
2018-11-21T21:35:17.787Z,27.30
2018-11-21T21:37:45.902Z,26.07
2018-11-21T21:40:20.230Z,25.77
2018-11-21T21:42:44.174Z,25.47
2018-11-21T21:45:17.227Z,24.73
2018-11-21T21:47:45.311Z,26.20
2018-11-21T21:50:14.533Z,24.03
2018-11-21T21:52:42.602Z,23.17
2018-11-21T21:55:11.473Z,26.60
2018-11-21T21:57:39.600Z,21.68
2018-11-21T22:00:14.887Z,22.77
2018-11-21T22:02:44.695Z,25.47
2018-11-21T22:05:12.827Z,23.27
2018-11-21T22:07:41.014Z,22.33
2018-11-21T22:10:11.067Z,22.87
2018-11-21T22:12:39.321Z,26.20
2018-11-21T22:15:22.891Z,23.00
2018-11-21T22:17:51.450Z,26.60
2018-11-21T22:20:19.940Z,22.40
2018-11-21T22:22:48.434Z,23.17
2018-11-21T22:25:16.623Z,29.77
2018-11-21T22:27:44.742Z,25.83
2018-11-21T22:30:13.967Z,26.63
2018-11-21T22:32:43.099Z,26.83
2018-11-21T22:35:12.260Z,25.57
2018-11-21T22:37:40.659Z,24.87
2018-11-21T22:40:11.676Z,25.93
2018-11-21T22:42:40.788Z,23.60
2018-11-21T22:45:10.393Z,28.53
2018-11-21T22:47:38.968Z,29.10
2018-11-21T22:50:09.386Z,29.03
2018-11-21T22:52:37.465Z,23.87
2018-11-21T22:55:06.412Z,29.50
2018-11-21T22:57:34.488Z,28.90
2018-11-21T23:00:02.666Z,28.80
2018-11-21T23:02:30.738Z,26.20
2018-11-21T23:04:58.836Z,26.30
2018-11-21T23:07:26.899Z,36.20
2018-11-21T23:09:55.016Z,22.60
2018-11-21T23:12:23.090Z,23.93
2018-11-21T23:14:51.187Z,21.83
2018-11-21T23:17:19.313Z,23.57
2018-11-21T23:19:47.394Z,24.63
2018-11-21T23:22:15.505Z,23.87
2018-11-21T23:24:43.585Z,23.57
2018-11-21T23:27:11.686Z,25.40
2018-11-21T23:29:39.773Z,23.67
2018-11-21T23:32:07.874Z,24.77
2018-11-21T23:34:36.042Z,22.90
2018-11-21T23:37:04.139Z,25.10
2018-11-21T23:39:32.342Z,26.73
2018-11-21T23:42:00.430Z,25.13
2018-11-21T23:44:28.517Z,21.27
2018-11-21T23:46:56.604Z,23.47
2018-11-21T23:49:24.763Z,25.20
2018-11-21T23:51:52.842Z,28.20
2018-11-21T23:54:20.934Z,27.93
2018-11-21T23:57:15.554Z,24.33
2018-11-21T23:59:19.342Z,27.17
